sensor_id;sensor_type;location;lat;lon;timestamp;temperature;humidity
11989;DHT22;6054;50.966;7.094;2023-07-02T00:01:55;25.80;52.10
11989;DHT22;6054;50.966;7.094;2023-07-02T00:04:22;25.70;52.00
11989;DHT22;6054;50.966;7.094;2023-07-02T00:06:49;25.70;52.10
11989;DHT22;6054;50.966;7.094;2023-07-02T00:09:16;25.90;52.90
11989;DHT22;6054;50.966;7.094;2023-07-02T00:11:44;25.70;52.80
11989;DHT22;6054;50.966;7.094;2023-07-02T00:14:11;25.70;53.30
11989;DHT22;6054;50.966;7.094;2023-07-02T00:16:41;25.70;53.20
11989;DHT22;6054;50.966;7.094;2023-07-02T00:19:09;25.70;52.90
11989;DHT22;6054;50.966;7.094;2023-07-02T00:21:36;26.00;51.50
11989;DHT22;6054;50.966;7.094;2023-07-02T00:24:03;25.70;52.00
11989;DHT22;6054;50.966;7.094;2023-07-02T00:26:30;25.70;52.50
11989;DHT22;6054;50.966;7.094;2023-07-02T00:28:57;25.70;52.30
11989;DHT22;6054;50.966;7.094;2023-07-02T00:31:24;25.70;52.20
11989;DHT22;6054;50.966;7.094;2023-07-02T00:33:51;25.70;51.90
11989;DHT22;6054;50.966;7.094;2023-07-02T00:36:19;25.70;51.70
11989;DHT22;6054;50.966;7.094;2023-07-02T00:38:48;25.70;51.60
11989;DHT22;6054;50.966;7.094;2023-07-02T00:41:15;25.80;52.30
11989;DHT22;6054;50.966;7.094;2023-07-02T00:43:42;25.70;52.10
11989;DHT22;6054;50.966;7.094;2023-07-02T00:46:12;25.60;52.10
11989;DHT22;6054;50.966;7.094;2023-07-02T00:48:40;25.60;52.60
11989;DHT22;6054;50.966;7.094;2023-07-02T00:51:07;25.60;52.60
11989;DHT22;6054;50.966;7.094;2023-07-02T00:53:36;25.60;52.30
11989;DHT22;6054;50.966;7.094;2023-07-02T00:56:03;25.70;51.50
11989;DHT22;6054;50.966;7.094;2023-07-02T00:58:30;25.60;51.70
11989;DHT22;6054;50.966;7.094;2023-07-02T01:00:56;25.60;51.40
11989;DHT22;6054;50.966;7.094;2023-07-02T01:03:24;25.80;51.60
11989;DHT22;6054;50.966;7.094;2023-07-02T01:05:50;25.60;51.40
11989;DHT22;6054;50.966;7.094;2023-07-02T01:08:17;25.60;51.70
11989;DHT22;6054;50.966;7.094;2023-07-02T01:10:46;25.80;51.90
11989;DHT22;6054;50.966;7.094;2023-07-02T01:13:16;25.80;52.30
11989;DHT22;6054;50.966;7.094;2023-07-02T01:15:44;25.80;52.30
11989;DHT22;6054;50.966;7.094;2023-07-02T01:18:12;25.80;52.10
11989;DHT22;6054;50.966;7.094;2023-07-02T01:20:41;25.60;52.00
11989;DHT22;6054;50.966;7.094;2023-07-02T01:23:09;25.50;52.00
11989;DHT22;6054;50.966;7.094;2023-07-02T01:25:36;25.50;51.60
11989;DHT22;6054;50.966;7.094;2023-07-02T01:28:02;25.70;51.90
11989;DHT22;6054;50.966;7.094;2023-07-02T01:30:29;25.60;51.70
11989;DHT22;6054;50.966;7.094;2023-07-02T01:32:56;25.50;51.40
11989;DHT22;6054;50.966;7.094;2023-07-02T01:35:23;25.50;51.20
11989;DHT22;6054;50.966;7.094;2023-07-02T01:37:51;25.50;51.20
11989;DHT22;6054;50.966;7.094;2023-07-02T01:40:19;25.50;50.70
11989;DHT22;6054;50.966;7.094;2023-07-02T01:42:45;25.60;50.90
11989;DHT22;6054;50.966;7.094;2023-07-02T01:45:12;25.50;50.80
11989;DHT22;6054;50.966;7.094;2023-07-02T01:47:39;25.50;50.60
11989;DHT22;6054;50.966;7.094;2023-07-02T01:50:07;25.50;50.50
11989;DHT22;6054;50.966;7.094;2023-07-02T01:52:34;25.50;50.50
11989;DHT22;6054;50.966;7.094;2023-07-02T01:55:02;25.40;50.20
11989;DHT22;6054;50.966;7.094;2023-07-02T01:57:29;25.50;50.70
11989;DHT22;6054;50.966;7.094;2023-07-02T01:59:56;25.70;50.80
11989;DHT22;6054;50.966;7.094;2023-07-02T02:02:23;25.40;50.80
11989;DHT22;6054;50.966;7.094;2023-07-02T02:04:50;25.40;50.40
11989;DHT22;6054;50.966;7.094;2023-07-02T02:07:17;25.50;50.40
11989;DHT22;6054;50.966;7.094;2023-07-02T02:09:44;25.40;50.20
11989;DHT22;6054;50.966;7.094;2023-07-02T02:12:12;25.50;50.10
11989;DHT22;6054;50.966;7.094;2023-07-02T02:14:39;25.40;50.20
11989;DHT22;6054;50.966;7.094;2023-07-02T02:17:06;25.40;50.20
11989;DHT22;6054;50.966;7.094;2023-07-02T02:19:33;25.40;49.80
11989;DHT22;6054;50.966;7.094;2023-07-02T02:22:00;25.30;50.00
11989;DHT22;6054;50.966;7.094;2023-07-02T02:24:27;25.30;50.10
11989;DHT22;6054;50.966;7.094;2023-07-02T02:26:53;25.30;50.10
11989;DHT22;6054;50.966;7.094;2023-07-02T02:29:21;25.30;50.10
11989;DHT22;6054;50.966;7.094;2023-07-02T02:31:48;25.30;50.10
11989;DHT22;6054;50.966;7.094;2023-07-02T02:34:15;25.30;50.00
11989;DHT22;6054;50.966;7.094;2023-07-02T02:36:42;25.30;50.10
11989;DHT22;6054;50.966;7.094;2023-07-02T02:39:09;25.30;50.40
11989;DHT22;6054;50.966;7.094;2023-07-02T02:41:35;25.20;50.30
11989;DHT22;6054;50.966;7.094;2023-07-02T02:44:02;25.40;50.40
11989;DHT22;6054;50.966;7.094;2023-07-02T02:46:31;25.30;50.10
11989;DHT22;6054;50.966;7.094;2023-07-02T02:48:57;25.20;50.40
11989;DHT22;6054;50.966;7.094;2023-07-02T02:51:24;25.20;50.30
11989;DHT22;6054;50.966;7.094;2023-07-02T02:53:51;25.10;49.90
11989;DHT22;6054;50.966;7.094;2023-07-02T02:56:18;25.20;49.70
11989;DHT22;6054;50.966;7.094;2023-07-02T02:58:44;25.20;49.30
11989;DHT22;6054;50.966;7.094;2023-07-02T03:01:11;25.20;49.00
11989;DHT22;6054;50.966;7.094;2023-07-02T03:03:40;25.10;49.10
11989;DHT22;6054;50.966;7.094;2023-07-02T03:06:11;25.10;48.40
11989;DHT22;6054;50.966;7.094;2023-07-02T03:08:39;25.30;49.30
11989;DHT22;6054;50.966;7.094;2023-07-02T03:11:06;25.20;48.70
11989;DHT22;6054;50.966;7.094;2023-07-02T03:13:33;25.10;48.10
11989;DHT22;6054;50.966;7.094;2023-07-02T03:15:59;25.20;49.00
11989;DHT22;6054;50.966;7.094;2023-07-02T03:18:26;25.10;49.10
11989;DHT22;6054;50.966;7.094;2023-07-02T03:20:54;25.10;49.20
11989;DHT22;6054;50.966;7.094;2023-07-02T03:23:21;25.10;49.40
11989;DHT22;6054;50.966;7.094;2023-07-02T03:28:22;25.10;50.30
11989;DHT22;6054;50.966;7.094;2023-07-02T03:30:49;25.30;49.40
11989;DHT22;6054;50.966;7.094;2023-07-02T03:33:15;25.10;49.50
11989;DHT22;6054;50.966;7.094;2023-07-02T03:35:42;25.30;49.50
11989;DHT22;6054;50.966;7.094;2023-07-02T03:38:10;25.00;49.70
11989;DHT22;6054;50.966;7.094;2023-07-02T03:40:37;25.10;49.30
11989;DHT22;6054;50.966;7.094;2023-07-02T03:43:04;25.10;49.50
11989;DHT22;6054;50.966;7.094;2023-07-02T03:45:31;25.00;49.30
11989;DHT22;6054;50.966;7.094;2023-07-02T03:47:57;25.10;49.00
11989;DHT22;6054;50.966;7.094;2023-07-02T03:50:24;25.00;48.90
11989;DHT22;6054;50.966;7.094;2023-07-02T03:52:51;25.10;48.70
11989;DHT22;6054;50.966;7.094;2023-07-02T03:55:19;25.00;48.70
11989;DHT22;6054;50.966;7.094;2023-07-02T03:57:46;25.30;48.80
11989;DHT22;6054;50.966;7.094;2023-07-02T04:00:13;25.00;48.50
11989;DHT22;6054;50.966;7.094;2023-07-02T04:02:40;25.00;48.50
11989;DHT22;6054;50.966;7.094;2023-07-02T04:05:07;25.30;48.60
11989;DHT22;6054;50.966;7.094;2023-07-02T04:07:33;25.00;48.20
11989;DHT22;6054;50.966;7.094;2023-07-02T04:10:00;25.30;48.80
11989;DHT22;6054;50.966;7.094;2023-07-02T04:12:29;25.00;47.80
11989;DHT22;6054;50.966;7.094;2023-07-02T04:14:56;25.30;48.70
11989;DHT22;6054;50.966;7.094;2023-07-02T04:17:23;25.00;48.10
11989;DHT22;6054;50.966;7.094;2023-07-02T04:19:50;25.10;48.10
11989;DHT22;6054;50.966;7.094;2023-07-02T04:22:16;25.10;47.80
11989;DHT22;6054;50.966;7.094;2023-07-02T04:24:44;25.00;47.40
11989;DHT22;6054;50.966;7.094;2023-07-02T04:27:14;25.00;48.00
11989;DHT22;6054;50.966;7.094;2023-07-02T04:29:44;25.10;48.50
11989;DHT22;6054;50.966;7.094;2023-07-02T04:32:11;25.10;47.90
11989;DHT22;6054;50.966;7.094;2023-07-02T04:34:38;25.30;48.00
11989;DHT22;6054;50.966;7.094;2023-07-02T04:37:05;25.10;47.70
11989;DHT22;6054;50.966;7.094;2023-07-02T04:39:32;25.10;48.00
11989;DHT22;6054;50.966;7.094;2023-07-02T04:41:59;25.00;48.70
11989;DHT22;6054;50.966;7.094;2023-07-02T04:44:26;25.00;48.30
11989;DHT22;6054;50.966;7.094;2023-07-02T04:46:57;25.30;48.50
11989;DHT22;6054;50.966;7.094;2023-07-02T04:49:23;25.00;48.90
11989;DHT22;6054;50.966;7.094;2023-07-02T04:51:50;25.20;47.60
11989;DHT22;6054;50.966;7.094;2023-07-02T04:54:19;25.00;47.90
11989;DHT22;6054;50.966;7.094;2023-07-02T04:56:46;25.00;48.60
11989;DHT22;6054;50.966;7.094;2023-07-02T04:59:13;25.20;49.10
11989;DHT22;6054;50.966;7.094;2023-07-02T05:01:40;25.00;48.50
11989;DHT22;6054;50.966;7.094;2023-07-02T05:04:09;25.00;48.30
11989;DHT22;6054;50.966;7.094;2023-07-02T05:06:36;25.00;49.10
11989;DHT22;6054;50.966;7.094;2023-07-02T05:09:03;25.00;48.50
11989;DHT22;6054;50.966;7.094;2023-07-02T05:11:30;25.00;48.40
11989;DHT22;6054;50.966;7.094;2023-07-02T05:13:57;25.00;48.40
11989;DHT22;6054;50.966;7.094;2023-07-02T05:16:24;25.10;48.60
11989;DHT22;6054;50.966;7.094;2023-07-02T05:18:50;25.10;48.70
11989;DHT22;6054;50.966;7.094;2023-07-02T05:21:19;25.00;48.80
11989;DHT22;6054;50.966;7.094;2023-07-02T05:23:46;25.10;49.20
11989;DHT22;6054;50.966;7.094;2023-07-02T05:26:13;25.30;49.50
11989;DHT22;6054;50.966;7.094;2023-07-02T05:28:40;25.30;48.70
11989;DHT22;6054;50.966;7.094;2023-07-02T05:31:06;25.00;48.50
11989;DHT22;6054;50.966;7.094;2023-07-02T05:33:33;25.00;48.70
11989;DHT22;6054;50.966;7.094;2023-07-02T05:36:00;25.00;48.70
11989;DHT22;6054;50.966;7.094;2023-07-02T05:38:28;25.00;48.60
11989;DHT22;6054;50.966;7.094;2023-07-02T05:40:55;25.10;48.30
11989;DHT22;6054;50.966;7.094;2023-07-02T05:43:22;25.30;48.40
11989;DHT22;6054;50.966;7.094;2023-07-02T05:45:50;25.20;48.80
11989;DHT22;6054;50.966;7.094;2023-07-02T05:48:18;25.10;48.20
11989;DHT22;6054;50.966;7.094;2023-07-02T05:50:44;25.00;48.60
11989;DHT22;6054;50.966;7.094;2023-07-02T05:53:11;25.10;49.20
11989;DHT22;6054;50.966;7.094;2023-07-02T05:55:39;25.10;49.10
11989;DHT22;6054;50.966;7.094;2023-07-02T05:58:07;25.10;49.10
11989;DHT22;6054;50.966;7.094;2023-07-02T06:00:33;25.10;49.20
11989;DHT22;6054;50.966;7.094;2023-07-02T06:03:00;25.10;48.90
11989;DHT22;6054;50.966;7.094;2023-07-02T06:05:27;25.10;48.20
11989;DHT22;6054;50.966;7.094;2023-07-02T06:07:54;25.10;48.60
11989;DHT22;6054;50.966;7.094;2023-07-02T06:10:21;25.10;49.50
11989;DHT22;6054;50.966;7.094;2023-07-02T06:12:50;25.10;49.30
11989;DHT22;6054;50.966;7.094;2023-07-02T06:15:17;25.30;48.90
11989;DHT22;6054;50.966;7.094;2023-07-02T06:17:44;25.30;49.40
11989;DHT22;6054;50.966;7.094;2023-07-02T06:20:12;25.10;49.00
11989;DHT22;6054;50.966;7.094;2023-07-02T06:22:38;25.10;49.50
11989;DHT22;6054;50.966;7.094;2023-07-02T06:25:06;25.20;49.10
11989;DHT22;6054;50.966;7.094;2023-07-02T06:27:33;25.20;49.30
11989;DHT22;6054;50.966;7.094;2023-07-02T06:30:01;25.20;49.20
11989;DHT22;6054;50.966;7.094;2023-07-02T06:32:28;25.20;48.60
11989;DHT22;6054;50.966;7.094;2023-07-02T06:34:55;25.40;48.80
11989;DHT22;6054;50.966;7.094;2023-07-02T06:37:21;25.20;48.90
11989;DHT22;6054;50.966;7.094;2023-07-02T06:39:48;25.20;48.90
11989;DHT22;6054;50.966;7.094;2023-07-02T06:42:15;25.50;48.20
11989;DHT22;6054;50.966;7.094;2023-07-02T06:44:42;25.50;49.20
11989;DHT22;6054;50.966;7.094;2023-07-02T06:47:10;25.30;48.70
11989;DHT22;6054;50.966;7.094;2023-07-02T06:49:37;25.50;48.30
11989;DHT22;6054;50.966;7.094;2023-07-02T06:52:04;25.30;48.60
11989;DHT22;6054;50.966;7.094;2023-07-02T06:54:31;25.40;48.70
11989;DHT22;6054;50.966;7.094;2023-07-02T06:56:57;25.60;48.50
11989;DHT22;6054;50.966;7.094;2023-07-02T06:59:24;25.40;47.60
11989;DHT22;6054;50.966;7.094;2023-07-02T07:01:51;25.40;47.40
11989;DHT22;6054;50.966;7.094;2023-07-02T07:04:19;25.40;47.40
11989;DHT22;6054;50.966;7.094;2023-07-02T07:06:46;25.40;47.50
11989;DHT22;6054;50.966;7.094;2023-07-02T07:09:13;25.40;47.40
11989;DHT22;6054;50.966;7.094;2023-07-02T07:11:39;25.50;47.20
11989;DHT22;6054;50.966;7.094;2023-07-02T07:14:06;25.50;47.20
11989;DHT22;6054;50.966;7.094;2023-07-02T07:16:33;25.80;47.30
11989;DHT22;6054;50.966;7.094;2023-07-02T07:19:00;25.90;47.00
11989;DHT22;6054;50.966;7.094;2023-07-02T07:21:28;25.60;46.70
11989;DHT22;6054;50.966;7.094;2023-07-02T07:23:57;25.70;46.60
11989;DHT22;6054;50.966;7.094;2023-07-02T07:26:24;25.70;46.20
11989;DHT22;6054;50.966;7.094;2023-07-02T07:28:53;25.70;44.90
11989;DHT22;6054;50.966;7.094;2023-07-02T07:31:21;25.80;46.30
11989;DHT22;6054;50.966;7.094;2023-07-02T07:33:48;26.10;46.60
11989;DHT22;6054;50.966;7.094;2023-07-02T07:36:15;25.90;45.50
11989;DHT22;6054;50.966;7.094;2023-07-02T07:38:44;26.00;45.20
11989;DHT22;6054;50.966;7.094;2023-07-02T07:41:11;26.00;44.80
11989;DHT22;6054;50.966;7.094;2023-07-02T07:43:38;26.00;45.20
11989;DHT22;6054;50.966;7.094;2023-07-02T07:46:04;26.00;45.70
11989;DHT22;6054;50.966;7.094;2023-07-02T07:48:31;26.00;45.30
11989;DHT22;6054;50.966;7.094;2023-07-02T07:50:58;26.00;45.10
11989;DHT22;6054;50.966;7.094;2023-07-02T07:53:25;26.10;45.10
11989;DHT22;6054;50.966;7.094;2023-07-02T07:55:53;26.20;45.00
11989;DHT22;6054;50.966;7.094;2023-07-02T07:58:20;26.00;44.80
11989;DHT22;6054;50.966;7.094;2023-07-02T08:00:47;26.20;44.60
11989;DHT22;6054;50.966;7.094;2023-07-02T08:03:14;26.10;44.80
11989;DHT22;6054;50.966;7.094;2023-07-02T08:05:40;26.10;44.60
11989;DHT22;6054;50.966;7.094;2023-07-02T08:08:07;26.10;44.10
11989;DHT22;6054;50.966;7.094;2023-07-02T08:10:34;26.20;44.60
11989;DHT22;6054;50.966;7.094;2023-07-02T08:13:02;26.20;43.70
11989;DHT22;6054;50.966;7.094;2023-07-02T08:15:29;26.20;43.00
11989;DHT22;6054;50.966;7.094;2023-07-02T08:17:56;26.50;42.20
11989;DHT22;6054;50.966;7.094;2023-07-02T08:20:24;26.50;43.10
11989;DHT22;6054;50.966;7.094;2023-07-02T08:22:51;26.30;42.70
11989;DHT22;6054;50.966;7.094;2023-07-02T08:25:18;26.50;44.10
11989;DHT22;6054;50.966;7.094;2023-07-02T08:27:47;26.40;42.90
11989;DHT22;6054;50.966;7.094;2023-07-02T08:30:15;26.50;42.60
11989;DHT22;6054;50.966;7.094;2023-07-02T08:32:42;26.50;42.40
11989;DHT22;6054;50.966;7.094;2023-07-02T08:35:09;26.60;42.10
11989;DHT22;6054;50.966;7.094;2023-07-02T08:37:35;26.50;42.00
11989;DHT22;6054;50.966;7.094;2023-07-02T08:40:02;26.50;42.30
11989;DHT22;6054;50.966;7.094;2023-07-02T08:42:30;26.60;42.80
11989;DHT22;6054;50.966;7.094;2023-07-02T08:44:59;26.60;43.10
11989;DHT22;6054;50.966;7.094;2023-07-02T08:47:28;26.60;43.60
11989;DHT22;6054;50.966;7.094;2023-07-02T08:49:54;26.60;42.00
11989;DHT22;6054;50.966;7.094;2023-07-02T08:52:21;26.60;41.70
11989;DHT22;6054;50.966;7.094;2023-07-02T08:54:48;26.60;40.80
11989;DHT22;6054;50.966;7.094;2023-07-02T08:57:15;26.60;41.40
11989;DHT22;6054;50.966;7.094;2023-07-02T08:59:42;26.60;42.10
11989;DHT22;6054;50.966;7.094;2023-07-02T09:02:08;26.70;42.20
11989;DHT22;6054;50.966;7.094;2023-07-02T09:04:37;26.50;42.20
11989;DHT22;6054;50.966;7.094;2023-07-02T09:07:04;26.90;41.90
11989;DHT22;6054;50.966;7.094;2023-07-02T09:09:31;26.80;42.50
11989;DHT22;6054;50.966;7.094;2023-07-02T09:11:58;27.10;41.30
11989;DHT22;6054;50.966;7.094;2023-07-02T09:14:27;26.90;41.70
11989;DHT22;6054;50.966;7.094;2023-07-02T09:17:07;26.90;42.10
11989;DHT22;6054;50.966;7.094;2023-07-02T09:19:36;27.00;42.00
11989;DHT22;6054;50.966;7.094;2023-07-02T09:22:14;27.10;41.90
11989;DHT22;6054;50.966;7.094;2023-07-02T09:24:50;27.20;40.90
11989;DHT22;6054;50.966;7.094;2023-07-02T09:27:17;27.30;42.30
11989;DHT22;6054;50.966;7.094;2023-07-02T09:29:50;27.20;41.00
11989;DHT22;6054;50.966;7.094;2023-07-02T09:32:24;27.20;41.60
11989;DHT22;6054;50.966;7.094;2023-07-02T09:34:54;27.10;41.10
11989;DHT22;6054;50.966;7.094;2023-07-02T09:37:22;27.20;41.10
11989;DHT22;6054;50.966;7.094;2023-07-02T09:39:50;27.10;41.90
11989;DHT22;6054;50.966;7.094;2023-07-02T09:42:18;27.10;40.80
11989;DHT22;6054;50.966;7.094;2023-07-02T09:44:46;27.20;40.70
11989;DHT22;6054;50.966;7.094;2023-07-02T09:47:15;27.40;40.50
11989;DHT22;6054;50.966;7.094;2023-07-02T09:49:48;27.30;40.60
11989;DHT22;6054;50.966;7.094;2023-07-02T09:52:17;27.40;40.10
11989;DHT22;6054;50.966;7.094;2023-07-02T09:54:45;27.50;38.50
11989;DHT22;6054;50.966;7.094;2023-07-02T09:57:12;27.50;38.90
11989;DHT22;6054;50.966;7.094;2023-07-02T09:59:39;27.50;39.30
11989;DHT22;6054;50.966;7.094;2023-07-02T10:02:07;27.50;39.50
11989;DHT22;6054;50.966;7.094;2023-07-02T10:04:42;27.80;40.70
11989;DHT22;6054;50.966;7.094;2023-07-02T10:07:09;27.60;40.90
11989;DHT22;6054;50.966;7.094;2023-07-02T10:09:39;27.70;40.10
11989;DHT22;6054;50.966;7.094;2023-07-02T10:12:17;27.80;40.40
11989;DHT22;6054;50.966;7.094;2023-07-02T10:14:44;28.00;40.60
11989;DHT22;6054;50.966;7.094;2023-07-02T10:17:23;27.80;39.80
11989;DHT22;6054;50.966;7.094;2023-07-02T10:19:53;27.80;40.60
11989;DHT22;6054;50.966;7.094;2023-07-02T10:22:20;28.10;39.80
11989;DHT22;6054;50.966;7.094;2023-07-02T10:24:55;27.90;40.30
11989;DHT22;6054;50.966;7.094;2023-07-02T10:27:35;28.00;40.60
11989;DHT22;6054;50.966;7.094;2023-07-02T10:30:03;28.10;40.70
11989;DHT22;6054;50.966;7.094;2023-07-02T10:32:31;27.90;40.50
11989;DHT22;6054;50.966;7.094;2023-07-02T10:34:59;27.90;40.60
11989;DHT22;6054;50.966;7.094;2023-07-02T10:37:35;28.20;40.90
11989;DHT22;6054;50.966;7.094;2023-07-02T10:40:06;28.10;39.60
11989;DHT22;6054;50.966;7.094;2023-07-02T10:42:44;28.00;39.90
11989;DHT22;6054;50.966;7.094;2023-07-02T10:45:11;28.00;38.60
11989;DHT22;6054;50.966;7.094;2023-07-02T10:47:39;28.20;38.30
11989;DHT22;6054;50.966;7.094;2023-07-02T10:50:14;27.90;38.10
11989;DHT22;6054;50.966;7.094;2023-07-02T10:52:41;27.90;38.70
11989;DHT22;6054;50.966;7.094;2023-07-02T10:55:09;28.00;38.00
11989;DHT22;6054;50.966;7.094;2023-07-02T10:57:38;27.90;37.90
11989;DHT22;6054;50.966;7.094;2023-07-02T11:00:11;28.00;37.90
11989;DHT22;6054;50.966;7.094;2023-07-02T11:02:38;27.90;38.40
11989;DHT22;6054;50.966;7.094;2023-07-02T11:05:06;27.90;37.60
11989;DHT22;6054;50.966;7.094;2023-07-02T11:07:37;28.00;38.50
11989;DHT22;6054;50.966;7.094;2023-07-02T11:10:05;28.10;38.30
11989;DHT22;6054;50.966;7.094;2023-07-02T11:12:33;27.90;38.70
11989;DHT22;6054;50.966;7.094;2023-07-02T11:15:09;28.00;37.90
11989;DHT22;6054;50.966;7.094;2023-07-02T11:17:36;27.90;39.30
11989;DHT22;6054;50.966;7.094;2023-07-02T11:20:04;28.00;38.30
11989;DHT22;6054;50.966;7.094;2023-07-02T11:22:31;27.90;38.80
11989;DHT22;6054;50.966;7.094;2023-07-02T11:25:09;27.90;38.60
11989;DHT22;6054;50.966;7.094;2023-07-02T11:27:37;27.90;38.50
11989;DHT22;6054;50.966;7.094;2023-07-02T11:30:05;28.00;37.90
11989;DHT22;6054;50.966;7.094;2023-07-02T11:32:46;27.90;38.50
11989;DHT22;6054;50.966;7.094;2023-07-02T11:35:13;27.90;38.40
11989;DHT22;6054;50.966;7.094;2023-07-02T11:37:41;28.00;37.70
11989;DHT22;6054;50.966;7.094;2023-07-02T11:40:09;27.90;37.60
11989;DHT22;6054;50.966;7.094;2023-07-02T11:42:37;28.00;38.00
11989;DHT22;6054;50.966;7.094;2023-07-02T11:45:05;28.30;37.40
11989;DHT22;6054;50.966;7.094;2023-07-02T11:47:32;28.00;37.40
11989;DHT22;6054;50.966;7.094;2023-07-02T11:49:59;28.20;36.10
11989;DHT22;6054;50.966;7.094;2023-07-02T11:52:25;28.30;37.10
11989;DHT22;6054;50.966;7.094;2023-07-02T11:54:52;28.10;36.80
11989;DHT22;6054;50.966;7.094;2023-07-02T11:57:20;28.40;37.20
11989;DHT22;6054;50.966;7.094;2023-07-02T11:59:50;28.20;37.30
11989;DHT22;6054;50.966;7.094;2023-07-02T12:02:18;28.40;37.60
11989;DHT22;6054;50.966;7.094;2023-07-02T12:04:45;28.30;37.30
11989;DHT22;6054;50.966;7.094;2023-07-02T12:07:12;28.10;38.00
11989;DHT22;6054;50.966;7.094;2023-07-02T12:09:39;28.10;38.40
11989;DHT22;6054;50.966;7.094;2023-07-02T12:12:07;28.10;38.40
11989;DHT22;6054;50.966;7.094;2023-07-02T12:14:34;28.10;39.00
11989;DHT22;6054;50.966;7.094;2023-07-02T12:17:02;28.20;38.40
11989;DHT22;6054;50.966;7.094;2023-07-02T12:19:29;28.10;38.40
11989;DHT22;6054;50.966;7.094;2023-07-02T12:21:56;28.20;37.30
11989;DHT22;6054;50.966;7.094;2023-07-02T12:24:23;28.20;37.20
11989;DHT22;6054;50.966;7.094;2023-07-02T12:26:49;28.20;36.40
11989;DHT22;6054;50.966;7.094;2023-07-02T12:29:16;28.30;36.50
11989;DHT22;6054;50.966;7.094;2023-07-02T12:31:43;28.20;36.00
11989;DHT22;6054;50.966;7.094;2023-07-02T12:34:11;28.40;36.90
11989;DHT22;6054;50.966;7.094;2023-07-02T12:36:38;28.40;36.00
11989;DHT22;6054;50.966;7.094;2023-07-02T12:39:05;28.40;35.50
11989;DHT22;6054;50.966;7.094;2023-07-02T12:41:33;28.60;35.40
11989;DHT22;6054;50.966;7.094;2023-07-02T12:44:00;28.60;36.10
11989;DHT22;6054;50.966;7.094;2023-07-02T12:46:27;28.40;34.00
11989;DHT22;6054;50.966;7.094;2023-07-02T12:48:53;28.40;32.50
11989;DHT22;6054;50.966;7.094;2023-07-02T12:51:22;28.50;32.80
11989;DHT22;6054;50.966;7.094;2023-07-02T12:53:49;28.50;32.00
11989;DHT22;6054;50.966;7.094;2023-07-02T12:56:16;28.50;32.40
11989;DHT22;6054;50.966;7.094;2023-07-02T12:58:44;28.70;32.10
11989;DHT22;6054;50.966;7.094;2023-07-02T13:01:11;28.70;32.40
11989;DHT22;6054;50.966;7.094;2023-07-02T13:03:37;28.70;31.50
11989;DHT22;6054;50.966;7.094;2023-07-02T13:06:04;28.60;31.70
11989;DHT22;6054;50.966;7.094;2023-07-02T13:08:32;28.80;32.60
11989;DHT22;6054;50.966;7.094;2023-07-02T13:10:59;28.70;32.60
11989;DHT22;6054;50.966;7.094;2023-07-02T13:13:26;28.80;32.00
11989;DHT22;6054;50.966;7.094;2023-07-02T13:15:52;28.80;31.80
11989;DHT22;6054;50.966;7.094;2023-07-02T13:18:19;29.00;31.50
11989;DHT22;6054;50.966;7.094;2023-07-02T13:20:46;28.80;32.20
11989;DHT22;6054;50.966;7.094;2023-07-02T13:23:13;28.80;32.20
11989;DHT22;6054;50.966;7.094;2023-07-02T13:25:41;28.80;32.00
11989;DHT22;6054;50.966;7.094;2023-07-02T13:28:08;28.80;31.90
11989;DHT22;6054;50.966;7.094;2023-07-02T13:30:35;28.80;32.50
11989;DHT22;6054;50.966;7.094;2023-07-02T13:33:01;28.90;32.00
11989;DHT22;6054;50.966;7.094;2023-07-02T13:35:28;29.10;32.80
11989;DHT22;6054;50.966;7.094;2023-07-02T13:37:56;29.00;33.40
11989;DHT22;6054;50.966;7.094;2023-07-02T13:40:25;28.90;32.80
11989;DHT22;6054;50.966;7.094;2023-07-02T13:42:53;29.00;33.10
11989;DHT22;6054;50.966;7.094;2023-07-02T13:45:21;29.00;32.40
11989;DHT22;6054;50.966;7.094;2023-07-02T13:47:48;29.20;33.00
11989;DHT22;6054;50.966;7.094;2023-07-02T13:50:15;29.00;33.00
11989;DHT22;6054;50.966;7.094;2023-07-02T13:52:41;29.10;33.30
11989;DHT22;6054;50.966;7.094;2023-07-02T13:55:09;29.10;33.80
11989;DHT22;6054;50.966;7.094;2023-07-02T13:57:35;29.10;33.40
11989;DHT22;6054;50.966;7.094;2023-07-02T14:00:05;29.50;33.50
11989;DHT22;6054;50.966;7.094;2023-07-02T14:02:32;29.30;34.00
11989;DHT22;6054;50.966;7.094;2023-07-02T14:04:59;29.40;32.20
11989;DHT22;6054;50.966;7.094;2023-07-02T14:07:26;29.40;32.70
11989;DHT22;6054;50.966;7.094;2023-07-02T14:09:53;29.60;32.20
11989;DHT22;6054;50.966;7.094;2023-07-02T14:12:21;29.50;32.20
11989;DHT22;6054;50.966;7.094;2023-07-02T14:14:47;29.50;30.70
11989;DHT22;6054;50.966;7.094;2023-07-02T14:17:16;29.60;30.90
11989;DHT22;6054;50.966;7.094;2023-07-02T14:19:43;29.60;31.90
11989;DHT22;6054;50.966;7.094;2023-07-02T14:22:10;29.70;32.50
11989;DHT22;6054;50.966;7.094;2023-07-02T14:24:37;29.70;32.90
11989;DHT22;6054;50.966;7.094;2023-07-02T14:27:05;29.70;32.90
11989;DHT22;6054;50.966;7.094;2023-07-02T14:29:32;29.80;32.80
11989;DHT22;6054;50.966;7.094;2023-07-02T14:32:00;29.80;32.80
11989;DHT22;6054;50.966;7.094;2023-07-02T14:34:28;29.80;32.00
11989;DHT22;6054;50.966;7.094;2023-07-02T14:36:55;29.80;32.50
11989;DHT22;6054;50.966;7.094;2023-07-02T14:39:22;29.90;32.80
11989;DHT22;6054;50.966;7.094;2023-07-02T14:41:49;29.80;31.90
11989;DHT22;6054;50.966;7.094;2023-07-02T14:44:16;30.00;31.50
11989;DHT22;6054;50.966;7.094;2023-07-02T14:46:43;29.80;31.60
11989;DHT22;6054;50.966;7.094;2023-07-02T14:49:10;29.90;32.20
11989;DHT22;6054;50.966;7.094;2023-07-02T14:51:38;29.90;31.70
11989;DHT22;6054;50.966;7.094;2023-07-02T14:54:05;30.00;32.20
11989;DHT22;6054;50.966;7.094;2023-07-02T14:56:32;30.20;31.90
11989;DHT22;6054;50.966;7.094;2023-07-02T14:59:01;30.10;32.00
11989;DHT22;6054;50.966;7.094;2023-07-02T15:01:28;30.00;30.80
11989;DHT22;6054;50.966;7.094;2023-07-02T15:03:56;30.00;31.40
11989;DHT22;6054;50.966;7.094;2023-07-02T15:06:23;30.00;30.00
11989;DHT22;6054;50.966;7.094;2023-07-02T15:08:51;30.00;31.70
11989;DHT22;6054;50.966;7.094;2023-07-02T15:11:19;30.10;32.00
11989;DHT22;6054;50.966;7.094;2023-07-02T15:13:46;30.20;32.50
11989;DHT22;6054;50.966;7.094;2023-07-02T15:16:13;30.10;32.40
11989;DHT22;6054;50.966;7.094;2023-07-02T15:18:40;30.20;31.90
11989;DHT22;6054;50.966;7.094;2023-07-02T15:21:06;30.30;31.20
11989;DHT22;6054;50.966;7.094;2023-07-02T15:23:34;30.20;31.50
11989;DHT22;6054;50.966;7.094;2023-07-02T15:26:04;30.20;31.50
11989;DHT22;6054;50.966;7.094;2023-07-02T15:28:31;30.30;32.40
11989;DHT22;6054;50.966;7.094;2023-07-02T15:31:02;30.20;32.20
11989;DHT22;6054;50.966;7.094;2023-07-02T15:33:29;30.20;32.80
11989;DHT22;6054;50.966;7.094;2023-07-02T15:35:58;30.30;32.60
11989;DHT22;6054;50.966;7.094;2023-07-02T15:38:26;30.60;32.50
11989;DHT22;6054;50.966;7.094;2023-07-02T15:41:06;30.40;31.50
11989;DHT22;6054;50.966;7.094;2023-07-02T15:43:33;30.50;31.60
11989;DHT22;6054;50.966;7.094;2023-07-02T15:46:00;30.50;31.30
11989;DHT22;6054;50.966;7.094;2023-07-02T15:48:26;30.70;31.60
11989;DHT22;6054;50.966;7.094;2023-07-02T15:50:53;30.70;31.50